Terminal Aerodrome Forecast
Issued by NWS Des Moines, IA

Home | Current Version | Previous Version | Text Only | Print | Product List | Glossary On
Versions: 1 2 3 4 5 6 7 8 9 10 11 12 13 14 15 16 17 18 19
000
FTUS43 KDMX 201131
TAFDSM
TAF
KDSM 201131Z 2012/2112 20011KT P6SM FEW250
     FM201530 22019G27KT P6SM SCT250
     FM210000 23010KT P6SM BKN150
     FM210900 29011KT P6SM SCT250=

USA.gov is the U.S. government's official web portal to all federal, state and local government web resources and services.